Fire Weather Observation
Issued by NWS Grand Junction, CO

Home | Current Version | Previous Version | Text Only | Print | Product List | Glossary Off
Versions: 1 2 3 4 5 6 7 8 9 10 11 12 13 14 15 16 17 18 19 20 21 22 23 24 25 26 27 28 29 30 31 32 33 34 35 36 37 38 39 40 41 42 43 44 45 46 47 48 49 50

000
SHUS65 KGJT 252017
FWOGJT

DAILY FIRE WEATHER OBSERVATION
NATIONAL WEATHER SERVICE GRAND JUNCTION CO
212 PM MDT SAT APR 25 2015

STATE OF THE WEATHER (W)               1
DRY BULB TEMPERATURE                   56   DEGREES FAHRENHEIT
RELATIVE HUMIDITY (RH)                 57   PERCENT
LIGHTNING ACTIVITY LEVEL
  (LAL - MIDNIGHT TO 2 PM)             1
WIND DIRECTION                         C    DEGREES (C IF CALM)
WIND SPEED                             0    MPH
MAX TEMP (2 PM - 2 PM)                 66   DEGREES FAHRENHEIT
MIN TEMP (2 PM - 2 PM)                 41   DEGREES FAHRENHEIT
MAX RH (2 PM - 2 PM)                   100  PERCENT
MIN RH (2 PM - 2 PM)                   24   PERCENT
PCPN DURATION                          2.8  HOURS
PCPN AMT (2 PM - 2 PM)                 0.24 INCHES
LAL (2 PM - 2 PM)                      2

$$

METAR KGJT 251953Z VRB04KT 10SM CLR 13/05 A2980 RMK AO2 SLP055
      T01330050



USA.gov is the U.S. government's official web portal to all federal, state and local government web resources and services.